createdAt,value
2019-03-12T00:01:13.838Z,22.90
2019-03-12T00:03:42.377Z,21.17
2019-03-12T00:06:10.912Z,19.53
2019-03-12T00:08:40.610Z,18.67
2019-03-12T00:11:09.080Z,18.80
2019-03-12T00:13:37.617Z,19.63
2019-03-12T00:16:07.310Z,16.97
2019-03-12T00:18:37.421Z,20.43
2019-03-12T00:21:11.436Z,26.42
2019-03-12T00:23:39.897Z,24.40
2019-03-12T00:29:38.505Z,25.87
2019-03-12T00:32:06.969Z,31.33
2019-03-12T00:34:38.241Z,31.10
2019-03-12T00:37:07.064Z,34.83
2019-03-12T00:39:35.593Z,33.53
2019-03-12T00:42:07.172Z,32.87
2019-03-12T00:44:35.869Z,32.80
2019-03-12T00:47:04.357Z,27.33
2019-03-12T00:49:36.613Z,29.17
2019-03-12T00:52:05.083Z,27.37
2019-03-12T00:54:37.158Z,28.30
2019-03-12T00:57:08.008Z,29.07
2019-03-12T00:59:36.480Z,29.10
2019-03-12T01:02:08.776Z,28.60
2019-03-12T01:04:37.317Z,28.70
2019-03-12T01:07:06.140Z,31.77
2019-03-12T01:09:34.600Z,28.40
2019-03-12T01:12:04.042Z,28.10
2019-03-12T01:14:32.585Z,27.93
2019-03-12T01:17:01.100Z,31.83
2019-03-12T01:19:37.173Z,27.50
2019-03-12T01:22:10.669Z,25.77
2019-03-12T01:24:39.132Z,27.10
2019-03-12T01:27:07.590Z,28.00
2019-03-12T01:29:38.258Z,28.73
2019-03-12T01:32:06.727Z,25.93
2019-03-12T01:34:35.265Z,27.33
2019-03-12T01:37:06.753Z,27.07
2019-03-12T01:39:36.097Z,27.57
2019-03-12T01:42:04.615Z,27.00
2019-03-12T01:44:34.714Z,27.87
2019-03-12T01:47:03.260Z,24.90
2019-03-12T01:49:35.095Z,27.27
2019-03-12T01:52:03.560Z,32.87
2019-03-12T01:54:32.020Z,25.93
2019-03-12T01:57:03.494Z,26.97
2019-03-12T01:59:32.023Z,26.27
2019-03-12T02:02:00.473Z,26.27
2019-03-12T02:04:29.764Z,25.53
2019-03-12T02:06:58.248Z,26.80
2019-03-12T02:09:26.815Z,27.63
2019-03-12T02:11:57.668Z,30.70
2019-03-12T02:14:28.145Z,26.83
2019-03-12T02:16:56.749Z,24.90
2019-03-12T02:19:27.317Z,24.67
2019-03-12T02:21:56.593Z,28.47
2019-03-12T02:24:25.204Z,30.73
2019-03-12T02:26:57.789Z,31.50
2019-03-12T02:29:26.253Z,30.27
2019-03-12T02:31:57.630Z,30.73
2019-03-12T02:34:27.849Z,33.23
2019-03-12T02:36:56.319Z,33.90
2019-03-12T02:39:26.161Z,35.13
2019-03-12T02:41:54.699Z,38.30
2019-03-12T02:44:23.214Z,36.13
2019-03-12T02:46:55.529Z,40.63
2019-03-12T02:49:24.070Z,37.87
2019-03-12T02:51:55.860Z,33.80
2019-03-12T02:54:24.377Z,42.73
2019-03-12T02:56:55.667Z,42.30
2019-03-12T02:59:24.933Z,41.10
2019-03-12T03:01:54.995Z,41.50
2019-03-12T03:04:23.467Z,46.48
2019-03-12T03:06:57.491Z,45.40
2019-03-12T03:09:25.961Z,45.93
2019-03-12T03:11:54.412Z,47.03
2019-03-12T03:14:38.464Z,51.37
2019-03-12T03:17:08.409Z,46.77
2019-03-12T03:19:39.766Z,52.40
2019-03-12T03:22:09.489Z,48.43
2019-03-12T03:24:38.143Z,46.68
2019-03-12T03:27:09.430Z,48.47
2019-03-12T03:29:38.114Z,49.40
2019-03-12T03:32:08.813Z,48.57
2019-03-12T03:34:37.546Z,46.87
2019-03-12T03:37:06.160Z,47.70
2019-03-12T03:39:34.782Z,48.63
2019-03-12T03:42:03.321Z,45.87
2019-03-12T03:44:31.850Z,44.90
2019-03-12T03:47:02.216Z,51.40
2019-03-12T03:49:30.674Z,43.02
2019-03-12T03:51:59.146Z,47.97
2019-03-12T03:54:28.079Z,49.57
2019-03-12T03:57:18.268Z,49.33
2019-03-12T03:59:50.445Z,47.73
2019-03-12T04:02:18.983Z,43.97
2019-03-12T04:04:51.505Z,46.17
2019-03-12T04:07:20.058Z,45.03
2019-03-12T04:09:53.997Z,49.27
2019-03-12T04:12:22.646Z,44.77
2019-03-12T04:14:51.173Z,42.23
2019-03-12T04:17:21.814Z,45.53
2019-03-12T04:19:50.358Z,50.27
2019-03-12T04:22:24.817Z,46.23
2019-03-12T04:24:53.367Z,43.63
2019-03-12T04:27:23.028Z,47.73
2019-03-12T04:29:55.384Z,43.83
2019-03-12T04:32:23.855Z,43.87
2019-03-12T04:34:52.393Z,47.23
2019-03-12T04:37:22.083Z,43.03
2019-03-12T04:39:50.925Z,47.70
2019-03-12T04:42:19.469Z,40.63
2019-03-12T04:44:48.656Z,48.47
2019-03-12T04:47:20.013Z,41.13
2019-03-12T04:49:48.476Z,55.20
2019-03-12T04:52:21.058Z,52.17
2019-03-12T04:54:49.527Z,42.80
2019-03-12T04:57:18.345Z,43.93
2019-03-12T04:59:50.433Z,44.00
2019-03-12T05:02:21.165Z,43.53
2019-03-12T05:04:49.686Z,43.53
2019-03-12T05:07:18.159Z,44.23
2019-03-12T05:09:47.732Z,42.13
2019-03-12T05:12:16.198Z,45.40
2019-03-12T05:14:44.732Z,49.50
2019-03-12T05:17:16.570Z,45.07
2019-03-12T05:19:45.109Z,40.30
2019-03-12T05:22:16.008Z,42.13
2019-03-12T05:24:47.530Z,43.97
2019-03-12T05:27:16.045Z,37.47
2019-03-12T05:29:46.777Z,41.47
2019-03-12T05:32:18.537Z,40.03
2019-03-12T05:34:46.989Z,42.73
2019-03-12T05:37:16.023Z,45.47
2019-03-12T05:39:44.543Z,38.83
2019-03-12T05:42:16.668Z,42.57
2019-03-12T05:44:45.206Z,45.27
2019-03-12T05:47:13.744Z,39.43
2019-03-12T05:49:45.665Z,36.97
2019-03-12T05:52:14.209Z,42.57
2019-03-12T05:54:42.753Z,38.07
2019-03-12T05:57:14.745Z,41.73
2019-03-12T05:59:44.761Z,38.27
2019-03-12T06:02:17.335Z,46.23
2019-03-12T06:05:07.936Z,32.30
2019-03-12T06:07:40.517Z,32.23
2019-03-12T06:10:11.582Z,30.97
2019-03-12T06:12:40.058Z,28.80
2019-03-12T06:15:18.089Z,28.17
2019-03-12T06:17:46.619Z,31.47
2019-03-12T06:20:15.785Z,22.87
2019-03-12T06:22:48.602Z,22.57
2019-03-12T06:25:17.074Z,21.47
2019-03-12T06:27:46.413Z,23.60
2019-03-12T06:30:18.878Z,20.43
2019-03-12T06:32:50.934Z,22.47
2019-03-12T06:35:24.224Z,22.70
2019-03-12T06:38:08.284Z,23.17
2019-03-12T06:40:38.466Z,28.23
2019-03-12T06:43:23.065Z,25.55
2019-03-12T06:46:05.236Z,23.40
2019-03-12T06:48:38.395Z,26.80
2019-03-12T06:51:20.425Z,18.47
2019-03-12T06:54:11.530Z,22.00
2019-03-12T06:56:47.601Z,20.20
2019-03-12T06:59:34.444Z,19.20
2019-03-12T07:02:13.560Z,22.30
2019-03-12T07:04:51.132Z,21.90
2019-03-12T07:07:41.704Z,22.03
2019-03-12T07:10:18.683Z,22.83
2019-03-12T07:12:51.170Z,23.27
2019-03-12T07:15:25.561Z,25.60
2019-03-12T07:18:00.835Z,16.90
2019-03-12T07:20:47.836Z,16.30
2019-03-12T07:23:37.132Z,18.20
2019-03-12T07:26:08.100Z,19.20
2019-03-12T07:28:50.626Z,22.10
2019-03-12T07:31:22.453Z,15.03
2019-03-12T07:34:04.528Z,14.20
2019-03-12T07:36:41.171Z,15.37
2019-03-12T07:39:15.070Z,17.03
2019-03-12T07:41:51.806Z,22.33
2019-03-12T07:44:32.841Z,28.10
2019-03-12T07:47:05.934Z,19.47
2019-03-12T07:49:38.193Z,21.20
2019-03-12T07:52:11.111Z,15.57
2019-03-12T07:54:51.025Z,18.93
2019-03-12T07:57:21.140Z,24.63
2019-03-12T08:00:04.981Z,19.82
2019-03-12T08:02:41.365Z,19.90
2019-03-12T08:05:28.476Z,22.30
2019-03-12T08:08:20.994Z,25.10
2019-03-12T08:10:56.599Z,25.57
2019-03-12T08:13:44.996Z,21.13
2019-03-12T08:16:20.317Z,13.77
2019-03-12T08:18:56.121Z,20.07
2019-03-12T08:21:35.157Z,18.90
2019-03-12T08:24:22.244Z,16.57
2019-03-12T08:26:54.361Z,19.77
2019-03-12T08:29:27.069Z,12.93
2019-03-12T08:32:03.608Z,14.60
2019-03-12T08:34:47.646Z,13.43
2019-03-12T08:37:27.694Z,17.53
2019-03-12T08:39:57.809Z,14.40
2019-03-12T08:42:27.991Z,21.75
2019-03-12T08:45:15.472Z,16.25
2019-03-12T08:47:51.504Z,17.27
2019-03-12T08:50:27.701Z,18.80
2019-03-12T08:53:00.478Z,15.17
2019-03-12T08:55:51.069Z,14.57
2019-03-12T08:58:22.819Z,19.10
2019-03-12T09:00:55.677Z,18.93
2019-03-12T09:03:33.806Z,14.03
2019-03-12T09:06:03.921Z,19.23
2019-03-12T09:08:36.299Z,17.40
2019-03-12T09:11:19.519Z,20.40
2019-03-12T09:13:52.708Z,18.10
2019-03-12T09:19:10.301Z,19.20
2019-03-12T09:21:49.601Z,16.63
2019-03-12T09:24:22.580Z,18.03
2019-03-12T09:27:04.404Z,14.70
2019-03-12T09:29:34.491Z,15.47
2019-03-12T09:32:22.121Z,16.87
2019-03-12T09:34:52.220Z,15.63
2019-03-12T09:37:30.145Z,10.60
2019-03-12T09:40:02.748Z,11.90
2019-03-12T09:42:46.338Z,10.87
2019-03-12T09:45:19.168Z,10.33
2019-03-12T09:48:01.945Z,9.57
2019-03-12T09:50:37.597Z,13.23
2019-03-12T09:53:09.664Z,11.13
2019-03-12T09:55:59.536Z,10.87
2019-03-12T09:58:34.061Z,13.40
2019-03-12T10:01:18.408Z,11.97
2019-03-12T10:04:03.595Z,13.63
2019-03-12T10:06:37.073Z,12.20
2019-03-12T10:09:26.405Z,17.30
2019-03-12T10:12:03.008Z,15.90
2019-03-12T10:14:45.472Z,16.17
2019-03-12T10:17:26.789Z,13.60
2019-03-12T10:20:03.921Z,14.47
2019-03-12T10:22:44.937Z,15.70
2019-03-12T10:25:31.835Z,14.60
2019-03-12T10:28:18.961Z,13.60
2019-03-12T10:30:49.065Z,16.03
2019-03-12T10:33:19.172Z,18.80
2019-03-12T10:36:02.831Z,15.00
2019-03-12T10:39:26.185Z,14.45
2019-03-12T10:42:00.072Z,11.48
2019-03-12T10:44:30.183Z,14.07
2019-03-12T10:47:02.746Z,11.68
2019-03-12T10:49:37.471Z,7.60
2019-03-12T10:52:03.085Z,9.85
2019-03-12T10:54:31.553Z,11.03
2019-03-12T10:57:02.445Z,9.08
2019-03-12T10:59:30.909Z,10.00
2019-03-12T11:02:01.569Z,13.65
2019-03-12T11:04:30.154Z,6.10
2019-03-12T11:06:58.617Z,7.60
2019-03-12T11:09:30.709Z,8.33
2019-03-12T11:11:59.482Z,8.88
2019-03-12T11:14:28.003Z,7.00
2019-03-12T11:17:01.903Z,7.10
2019-03-12T11:19:33.652Z,4.40
2019-03-12T11:22:04.354Z,7.20
2019-03-12T11:24:34.400Z,8.10
2019-03-12T11:27:02.861Z,5.92
2019-03-12T11:29:31.385Z,2.47
2019-03-12T11:32:01.297Z,7.80
2019-03-12T11:34:29.760Z,9.60
2019-03-12T11:36:58.292Z,6.50
2019-03-12T11:39:30.119Z,7.22
2019-03-12T11:41:58.587Z,6.60
2019-03-12T11:44:27.470Z,8.25
2019-03-12T11:46:56.006Z,6.22
2019-03-12T11:49:24.533Z,6.90
2019-03-12T11:51:55.424Z,8.48
2019-03-12T11:54:23.959Z,3.10
2019-03-12T11:56:53.925Z,5.67
2019-03-12T11:59:24.167Z,3.15
2019-03-12T12:01:52.789Z,5.75
2019-03-12T12:04:21.533Z,5.75
2019-03-12T12:06:50.748Z,4.78
2019-03-12T12:09:19.304Z,3.22
2019-03-12T12:11:50.658Z,6.90
2019-03-12T12:14:19.559Z,2.62
2019-03-12T12:16:48.858Z,3.62
2019-03-12T12:19:18.063Z,4.12
2019-03-12T12:21:49.627Z,3.12
2019-03-12T12:24:20.046Z,4.47
2019-03-12T12:29:16.158Z,1.85
2019-03-12T12:31:47.353Z,4.35
2019-03-12T12:36:44.225Z,3.15
2019-03-12T12:39:14.614Z,3.33
2019-03-12T12:41:43.074Z,5.80
2019-03-12T12:44:11.590Z,4.97
2019-03-12T12:46:43.385Z,2.67
2019-03-12T12:49:11.960Z,3.55
2019-03-12T12:51:40.417Z,5.47
2019-03-12T12:54:10.671Z,3.52
2019-03-12T12:56:40.645Z,8.43
2019-03-12T12:59:09.186Z,5.87
2019-03-12T13:01:38.491Z,2.65
2019-03-12T13:04:06.939Z,2.83
2019-03-12T13:06:35.394Z,3.95
2019-03-12T13:09:09.672Z,5.15
2019-03-12T13:11:38.126Z,3.22
2019-03-12T13:14:07.985Z,2.50
2019-03-12T13:16:36.438Z,3.67
2019-03-12T13:19:07.701Z,3.10
2019-03-12T13:21:40.087Z,5.83
2019-03-12T13:24:10.802Z,5.47
2019-03-12T13:26:39.338Z,3.02
2019-03-12T13:29:09.426Z,5.92
2019-03-12T13:31:37.889Z,4.87
2019-03-12T13:34:08.038Z,3.08
2019-03-12T13:36:37.438Z,5.65
2019-03-12T13:39:07.148Z,2.92
2019-03-12T13:41:37.505Z,7.12
2019-03-12T13:44:05.999Z,5.62
2019-03-12T13:46:34.566Z,3.10
2019-03-12T13:49:04.671Z,4.35
2019-03-12T13:51:33.216Z,4.87
2019-03-12T13:54:01.747Z,2.75
2019-03-12T13:56:31.501Z,3.95
2019-03-12T13:58:59.998Z,7.58
2019-03-12T14:01:28.520Z,4.65
2019-03-12T14:04:10.167Z,3.75
2019-03-12T14:06:28.198Z,3.08
2019-03-12T14:08:58.570Z,5.97
2019-03-12T14:13:57.103Z,4.42
2019-03-12T14:16:28.758Z,3.87
2019-03-12T14:18:59.387Z,2.90
2019-03-12T14:21:29.615Z,3.33
2019-03-12T14:24:01.813Z,3.45
2019-03-12T14:26:32.634Z,3.90
2019-03-12T14:29:01.172Z,4.72
2019-03-12T14:31:29.703Z,4.30
2019-03-12T14:34:00.330Z,3.00
2019-03-12T14:36:28.778Z,4.50
2019-03-12T14:38:57.241Z,5.12
2019-03-12T14:41:25.995Z,7.05
2019-03-12T14:43:54.516Z,3.17
2019-03-12T14:46:23.588Z,6.30
2019-03-12T14:48:55.514Z,3.98
2019-03-12T14:51:45.235Z,3.35
2019-03-12T14:54:16.457Z,5.97
2019-03-12T14:56:44.915Z,5.08
2019-03-12T14:59:17.330Z,3.62
2019-03-12T15:01:45.784Z,5.97
2019-03-12T15:04:15.345Z,3.17
2019-03-12T15:06:46.659Z,3.70
2019-03-12T15:09:15.478Z,4.28
2019-03-12T15:11:44.659Z,7.10
2019-03-12T15:14:13.110Z,6.22
2019-03-12T15:16:41.834Z,5.75
2019-03-12T15:19:14.207Z,8.28
2019-03-12T15:21:46.578Z,9.28
2019-03-12T15:24:18.091Z,6.95
2019-03-12T15:26:46.539Z,5.67
2019-03-12T15:29:16.130Z,3.90
2019-03-12T15:31:44.589Z,11.25
2019-03-12T15:34:13.030Z,8.88
2019-03-12T15:36:45.510Z,8.45
2019-03-12T15:39:17.441Z,5.80
2019-03-12T15:41:45.902Z,6.83
2019-03-12T15:44:19.283Z,11.35
2019-03-12T15:46:48.127Z,6.15
2019-03-12T15:49:16.574Z,6.97
2019-03-12T15:51:48.068Z,8.90
2019-03-12T15:54:19.788Z,5.53
2019-03-12T15:56:48.727Z,6.03
2019-03-12T15:59:17.737Z,8.95
2019-03-12T16:01:49.215Z,7.25
2019-03-12T16:04:17.673Z,7.08
2019-03-12T16:06:46.157Z,7.08
2019-03-12T16:09:15.047Z,10.72
2019-03-12T16:11:44.734Z,5.85
2019-03-12T16:14:13.198Z,6.40
2019-03-12T16:16:41.720Z,8.00
2019-03-12T16:19:13.770Z,5.00
2019-03-12T16:21:42.466Z,5.92
2019-03-12T16:24:14.322Z,8.05
2019-03-12T16:26:44.006Z,7.17
2019-03-12T16:29:12.458Z,8.98
2019-03-12T16:31:41.943Z,6.03
2019-03-12T16:34:10.388Z,8.00
2019-03-12T16:36:39.941Z,5.47
2019-03-12T16:39:10.469Z,4.85
2019-03-12T16:44:06.911Z,5.95
2019-03-12T16:46:35.360Z,5.55
2019-03-12T16:49:06.807Z,7.20
2019-03-12T16:51:35.358Z,4.60
2019-03-12T16:54:05.450Z,6.58
2019-03-12T16:56:45.031Z,6.00
2019-03-12T16:59:08.579Z,5.92
2019-03-12T17:01:38.174Z,5.80
2019-03-12T17:04:06.691Z,5.72
2019-03-12T17:06:35.160Z,4.53
2019-03-12T17:09:08.346Z,4.08
2019-03-12T17:11:36.787Z,4.08
2019-03-12T17:14:05.235Z,6.08
2019-03-12T17:16:34.605Z,4.75
2019-03-12T17:19:03.865Z,3.55
2019-03-12T17:21:33.226Z,3.90
2019-03-12T17:24:02.444Z,3.80
2019-03-12T17:26:30.962Z,5.33
2019-03-12T17:28:59.411Z,3.90
2019-03-12T17:31:30.546Z,4.30
2019-03-12T17:33:58.995Z,3.33
2019-03-12T17:36:28.966Z,3.58
2019-03-12T17:39:00.476Z,5.92
2019-03-12T17:41:28.924Z,7.60
2019-03-12T17:43:58.137Z,6.28
2019-03-12T17:46:26.742Z,4.65
2019-03-12T17:48:55.480Z,5.30
2019-03-12T17:51:23.942Z,2.90
2019-03-12T17:53:52.462Z,4.95
2019-03-12T17:56:24.483Z,7.55
2019-03-12T17:58:52.929Z,3.80
2019-03-12T18:01:29.437Z,4.37
2019-03-12T18:03:54.257Z,7.47
2019-03-12T18:06:24.073Z,3.27
2019-03-12T18:08:52.541Z,7.08
2019-03-12T18:11:24.509Z,6.35
2019-03-12T18:13:55.980Z,4.75
2019-03-12T18:16:24.426Z,4.92
2019-03-12T18:18:55.406Z,8.53
2019-03-12T18:21:23.850Z,4.42
2019-03-12T18:24:00.152Z,8.60
2019-03-12T18:26:28.595Z,5.12
2019-03-12T18:28:59.244Z,8.43
2019-03-12T18:31:30.097Z,8.30
2019-03-12T18:33:58.621Z,8.38
2019-03-12T18:36:30.867Z,8.65
2019-03-12T18:39:02.849Z,7.80
2019-03-12T18:41:30.923Z,4.92
2019-03-12T18:43:59.443Z,7.28
2019-03-12T18:46:30.693Z,6.92
2019-03-12T18:49:03.402Z,6.28
2019-03-12T18:51:34.571Z,7.33
2019-03-12T18:54:03.047Z,7.67
2019-03-12T18:56:31.636Z,7.28
2019-03-12T18:59:04.730Z,8.30
2019-03-12T19:01:33.176Z,5.47
2019-03-12T19:04:03.357Z,6.47
2019-03-12T19:06:34.998Z,8.50
2019-03-12T19:09:07.285Z,6.37
2019-03-12T19:11:37.532Z,7.87
2019-03-12T19:14:08.559Z,7.00
2019-03-12T19:16:37.081Z,6.42
2019-03-12T19:19:06.409Z,5.90
2019-03-12T19:21:41.878Z,6.92
2019-03-12T19:24:10.322Z,7.92
2019-03-12T19:26:39.959Z,6.83
2019-03-12T19:29:08.494Z,7.78
2019-03-12T19:31:38.668Z,4.78
2019-03-12T19:34:07.451Z,6.15
2019-03-12T19:36:36.984Z,8.08
2019-03-12T19:39:07.481Z,4.20
2019-03-12T19:41:36.618Z,10.00
2019-03-12T19:44:08.205Z,5.90
2019-03-12T19:46:36.650Z,8.05
2019-03-12T19:49:05.107Z,8.03
2019-03-12T19:51:34.153Z,7.35
2019-03-12T19:54:02.595Z,6.85
2019-03-12T19:56:31.119Z,7.20
2019-03-12T19:59:02.061Z,6.05
2019-03-12T20:01:32.030Z,6.22
2019-03-12T20:04:04.956Z,4.90
2019-03-12T20:06:33.426Z,5.85
2019-03-12T20:09:05.382Z,3.80
2019-03-12T20:11:53.842Z,6.22
2019-03-12T20:14:42.910Z,5.97
2019-03-12T20:17:39.016Z,5.25
2019-03-12T20:20:27.329Z,4.92
2019-03-12T20:23:09.145Z,6.58
2019-03-12T20:25:59.017Z,4.17
2019-03-12T20:28:59.750Z,6.92
2019-03-12T20:32:01.939Z,6.15
2019-03-12T20:35:01.102Z,6.12
2019-03-12T20:38:04.599Z,7.78
2019-03-12T20:40:52.383Z,3.58
2019-03-12T20:43:55.671Z,4.47
2019-03-12T20:46:51.890Z,7.00
2019-03-12T20:49:57.023Z,7.90
2019-03-12T20:53:01.317Z,6.83
2019-03-12T20:56:06.230Z,3.65
2019-03-12T20:59:05.216Z,8.73
2019-03-12T21:01:57.613Z,6.03
2019-03-12T21:05:10.645Z,6.80
2019-03-12T21:07:44.959Z,5.33
2019-03-12T21:10:50.103Z,6.53
2019-03-12T21:13:55.010Z,5.22
2019-03-12T21:16:36.871Z,6.17
2019-03-12T21:19:22.800Z,6.80
2019-03-12T21:22:19.391Z,6.08
2019-03-12T21:25:02.935Z,6.37
2019-03-12T21:27:59.446Z,6.83
2019-03-12T21:30:49.629Z,8.97
2019-03-12T21:33:18.307Z,6.95
2019-03-12T21:35:47.892Z,7.33
2019-03-12T21:38:16.438Z,5.28
2019-03-12T21:40:45.607Z,6.03
2019-03-12T21:43:14.131Z,8.00
2019-03-12T21:45:42.608Z,6.75
2019-03-12T21:48:11.090Z,6.70
2019-03-12T21:50:39.607Z,4.40
2019-03-12T21:53:08.100Z,6.15
2019-03-12T21:55:37.956Z,6.17
2019-03-12T21:58:07.484Z,4.60
2019-03-12T22:00:35.929Z,5.53
2019-03-12T22:03:04.375Z,7.17
2019-03-12T22:05:32.870Z,11.20
2019-03-12T22:08:02.495Z,5.78
2019-03-12T22:13:07.380Z,6.12
2019-03-12T22:15:35.827Z,6.57
2019-03-12T22:20:33.718Z,3.70
2019-03-12T22:23:15.776Z,5.90
2019-03-12T22:25:44.381Z,4.53
2019-03-12T22:28:12.839Z,8.03
2019-03-12T22:30:41.287Z,9.95
2019-03-12T22:33:09.768Z,5.85
2019-03-12T22:35:38.228Z,4.50
2019-03-12T22:38:06.730Z,5.12
2019-03-12T22:40:35.318Z,5.78
2019-03-12T22:43:03.842Z,6.90
2019-03-12T22:45:32.286Z,9.75
2019-03-12T22:48:00.799Z,3.92
2019-03-12T22:50:29.245Z,5.15
2019-03-12T22:52:57.695Z,4.03
2019-03-12T22:55:26.229Z,5.25
2019-03-12T22:57:54.747Z,7.78
2019-03-12T23:00:23.228Z,2.47
2019-03-12T23:02:51.761Z,6.67
2019-03-12T23:05:20.202Z,6.10
2019-03-12T23:07:48.649Z,6.80
2019-03-12T23:10:17.223Z,5.67
2019-03-12T23:12:45.761Z,6.05
2019-03-12T23:15:16.112Z,4.20
2019-03-12T23:17:44.667Z,5.47
2019-03-12T23:20:22.257Z,7.60
2019-03-12T23:22:52.351Z,10.23
2019-03-12T23:25:21.515Z,5.53
2019-03-12T23:27:50.131Z,6.87
2019-03-12T23:30:23.380Z,5.00
2019-03-12T23:32:52.670Z,3.62
2019-03-12T23:35:21.229Z,6.12
2019-03-12T23:37:49.688Z,4.00
2019-03-12T23:40:18.950Z,5.15
2019-03-12T23:42:47.618Z,7.58
2019-03-12T23:45:17.177Z,7.35
2019-03-12T23:47:45.880Z,7.03
2019-03-12T23:50:15.992Z,5.97
2019-03-12T23:52:44.607Z,6.12
2019-03-12T23:55:14.767Z,5.97
2019-03-12T23:57:43.447Z,5.05
